Map

Track Data

SID SEASON NUMBER BASIN SUBBASIN NAME ISO_TIME NATURE LAT LON WMO_WIND WMO_PRES WMO_AGENCY TRACK_TYPE DIST2LAND LANDFALL IFLAG USA_AGENCY USA_ATCF_ID USA_LAT USA_LON USA_RECORD USA_STATUS USA_WIND USA_PRES USA_SSHS USA_R34_NE USA_R34_SE USA_R34_SW USA_R34_NW USA_R50_NE USA_R50_SE USA_R50_SW USA_R50_NW USA_R64_NE USA_R64_SE USA_R64_SW USA_R64_NW USA_POCI USA_ROCI USA_RMW USA_EYE TOKYO_LAT TOKYO_LON TOKYO_GRADE TOKYO_WIND TOKYO_PRES TOKYO_R50_DIR TOKYO_R50_LONG TOKYO_R50_SHORT TOKYO_R30_DIR TOKYO_R30_LONG TOKYO_R30_SHORT TOKYO_LAND CMA_LAT CMA_LON CMA_CAT CMA_WIND CMA_PRES HKO_LAT HKO_LON HKO_CAT HKO_WIND HKO_PRES NEWDELHI_LAT NEWDELHI_LON NEWDELHI_GRADE NEWDELHI_WIND NEWDELHI_PRES NEWDELHI_CI NEWDELHI_DP NEWDELHI_POCI REUNION_LAT REUNION_LON REUNION_TYPE REUNION_WIND REUNION_PRES REUNION_TNUM REUNION_CI REUNION_RMW REUNION_R34_NE REUNION_R34_SE REUNION_R34_SW REUNION_R34_NW REUNION_R50_NE REUNION_R50_SE REUNION_R50_SW REUNION_R50_NW REUNION_R64_NE REUNION_R64_SE REUNION_R64_SW REUNION_R64_NW BOM_LAT BOM_LON BOM_TYPE BOM_WIND BOM_PRES BOM_TNUM BOM_CI BOM_RMW BOM_R34_NE BOM_R34_SE BOM_R34_SW BOM_R34_NW BOM_R50_NE BOM_R50_SE BOM_R50_SW BOM_R50_NW BOM_R64_NE BOM_R64_SE BOM_R64_SW BOM_R64_NW BOM_ROCI BOM_POCI BOM_EYE BOM_POS_METHOD BOM_PRES_METHOD NADI_LAT NADI_LON NADI_CAT NADI_WIND NADI_PRES WELLINGTON_LAT WELLINGTON_LON WELLINGTON_WIND WELLINGTON_PRES DS824_LAT DS824_LON DS824_STAGE DS824_WIND DS824_PRES TD9636_LAT TD9636_LON TD9636_STAGE TD9636_WIND TD9636_PRES TD9635_LAT TD9635_LON TD9635_WIND TD9635_PRES TD9635_ROCI NEUMANN_LAT NEUMANN_LON NEUMANN_CLASS NEUMANN_WIND NEUMANN_PRES MLC_LAT MLC_LON MLC_CLASS MLC_WIND MLC_PRES USA_GUST BOM_GUST BOM_GUST_PER REUNION_GUST REUNION_GUST_PER USA_SEAHGT USA_SEARAD_NE USA_SEARAD_SE USA_SEARAD_SW USA_SEARAD_NW STORM_SPEED STORM_DIR
1991111N04145 1991 20 WP MM VANESSA 1991-04-20 12:00:00 NR 3.90000 145.000 main 695 695 O_____________ jtwc_wp WP031991 3.90000 145.000 15 -1 12 270
1991111N04145 1991 20 WP MM VANESSA 1991-04-20 15:00:00 NR 3.90007 144.410 main 715 715 P_____________ WP031991 3.90007 144.410 15 -1 12 270
1991111N04145 1991 20 WP MM VANESSA 1991-04-20 18:00:00 NR 3.90000 143.800 main 741 741 O_____________ jtwc_wp WP031991 3.90000 143.800 15 -1 13 270
1991111N04145 1991 20 WP MM VANESSA 1991-04-20 21:00:00 NR 3.89997 143.158 main 765 741 P_____________ WP031991 3.89997 143.158 15 -1 13 270
1991111N04145 1991 20 WP MM VANESSA 1991-04-21 00:00:00 NR 3.90000 142.500 main 741 727 O_____________ jtwc_wp WP031991 3.90000 142.500 15 -1 13 270
1991111N04145 1991 20 WP MM VANESSA 1991-04-21 03:00:00 NR 3.89995 141.850 main 727 696 P_____________ WP031991 3.89995 141.850 15 -1 13 270
1991111N04145 1991 20 WP MM VANESSA 1991-04-21 06:00:00 NR 3.90000 141.200 main 696 671 O_____________ jtwc_wp WP031991 3.90000 141.200 15 -1 13 270
1991111N04145 1991 20 WP MM VANESSA 1991-04-21 09:00:00 NR 3.89995 140.550 main 671 644 P_____________ WP031991 3.89995 140.550 15 -1 13 270
1991111N04145 1991 20 WP MM VANESSA 1991-04-21 12:00:00 NR 3.90000 139.900 main 644 628 O_____________ jtwc_wp WP031991 3.90000 139.900 15 -1 13 270
1991111N04145 1991 20 WP MM VANESSA 1991-04-21 15:00:00 NR 3.89245 139.250 main 628 606 P_____________ WP031991 3.89245 139.250 15 -1 13 270
1991111N04145 1991 20 WP MM VANESSA 1991-04-21 18:00:00 NR 3.90000 138.600 main 606 576 O_____________ jtwc_wp WP031991 3.90000 138.600 15 -1 13 270
1991111N04145 1991 20 WP MM VANESSA 1991-04-21 21:00:00 NR 3.89748 137.935 main 571 555 P_____________ WP031991 3.89748 137.935 15 -1 13 274
1991111N04145 1991 20 WP MM VANESSA 1991-04-22 00:00:00 NR 4.00000 137.300 main 559 555 O_____________ jtwc_wp WP031991 4.00000 137.300 15 -1 13 288
1991111N04145 1991 20 WP MM VANESSA 1991-04-22 03:00:00 NR 4.28993 136.735 main 573 573 P_____________ WP031991 4.28993 136.735 15 -1 13 303
1991111N04145 1991 20 WP MM VANESSA 1991-04-22 06:00:00 NR 4.70000 136.200 main 608 607 O_____________ jtwc_wp WP031991 4.70000 136.200 15 -1 14 308
1991111N04145 1991 20 WP MM VANESSA 1991-04-22 09:00:00 NR 5.12746 135.650 main 649 649 P_____________ WP031991 5.12746 135.650 17 -1 14 309
1991111N04145 1991 20 WP MM VANESSA 1991-04-22 12:00:00 NR 5.60000 135.100 main 707 707 O_____________ jtwc_wp WP031991 5.60000 135.100 20 -1 15 312
1991111N04145 1991 20 WP MM VANESSA 1991-04-22 15:00:00 NR 6.10742 134.557 main 749 746 P_____________ WP031991 6.10742 134.557 20 -1 15 312
1991111N04145 1991 20 WP MM VANESSA 1991-04-22 18:00:00 NR 6.60000 134.000 main 746 733 O_____________ jtwc_wp WP031991 6.60000 134.000 20 -1 15 310
1991111N04145 1991 20 WP MM VANESSA 1991-04-22 21:00:00 NR 7.04491 133.415 main 725 651 P_____________ WP031991 7.04491 133.415 22 -1 17 295
1991111N04145 1991 20 WP MM VANESSA 1991-04-23 00:00:00 TS 7.32000 132.440 main 640 573 O_O___________ jtwc_wp WP031991 7.40000 132.800 25 -1 7.00000 131.000 0 19 1008 16 282
1991111N04145 1991 20 WP MM VANESSA 1991-04-23 03:00:00 TS 7.37994 131.805 main 573 518 P_P___________ WP031991 7.62993 132.157 25 -1 6.87994 131.100 0 19 1008 12 279
1991111N04145 1991 20 WP MM VANESSA 1991-04-23 06:00:00 TS 7.51250 131.275 1006 tokyo main 518 452 OOO___________ jtwc_wp WP031991 7.80000 131.500 25 -1 7.90000 131.200 2 1006 0 0 0 7.00000 131.000 0 19 1008 12 290
1991111N04145 1991 20 WP MM VANESSA 1991-04-23 09:00:00 TS 7.78504 130.690 main 452 388 PPP___________ WP031991 8.00740 130.850 25 -1 7.94017 130.600 2 1005 0 0 7.48511 130.575 0 21 1006 13 297
1991111N04145 1991 20 WP MM VANESSA 1991-04-23 12:00:00 TS 8.11667 130.067 1004 tokyo main 388 326 OOOO__________ jtwc_wp WP031991 8.20000 130.200 25 -1 8.00000 130.000 2 1004 0 0 0 8.00000 130.000 1 23 1005 8.60000 130.000 TD 30 998 13 292
1991111N04145 1991 20 WP MM VANESSA 1991-04-23 15:00:00 TS 8.27814 129.471 main 326 265 PPPP__________ WP031991 8.36493 129.542 27 -1 8.09241 129.400 2 1004 0 0 8.13734 129.522 1 23 1005 8.75764 129.365 TD 30 998 12 284
1991111N04145 1991 20 WP MM VANESSA 1991-04-23 18:00:00 TS 8.42000 128.860 1004 tokyo main 265 200 OOOO__________ jtwc_wp WP031991 8.50000 128.900 30 -1 8.20000 128.800 2 1004 0 0 0 8.20000 129.000 1 23 1005 8.90000 128.700 TD 30 998 13 284
1991111N04145 1991 20 WP MM VANESSA 1991-04-23 21:00:00 TS 8.59495 128.213 main 200 139 PPPP__________ WP031991 8.60737 128.292 30 -1 8.29241 128.200 2 1004 0 0 8.46503 128.365 1 26 1003 9.01499 127.992 TD 27 999 13 284
1991111N04145 1991 20 WP MM VANESSA 1991-04-24 00:00:00 TS 8.72500 127.575 1004 tokyo main 139 76 OOOO__________ jtwc_wp WP031991 8.70000 127.700 30 -1 8.40000 127.600 2 1004 0 0 0 8.70000 127.700 1 29 1002 9.10000 127.300 TD 25 1000 12 279
1991111N04145 1991 20 WP MM VANESSA 1991-04-24 03:00:00 TS 8.79798 126.973 main 76 15 PPPP__________ WP031991 8.79237 127.107 30 -1 8.53491 127.000 2 1003 0 0 8.71483 127.100 1 29 1002 9.14982 126.685 TD 27 999 12 277
1991111N04145 1991 20 WP MM VANESSA 1991-04-24 06:00:00 TS 8.87500 126.375 1002 tokyo main 15 0 OOOO__________ jtwc_wp WP031991 8.90000 126.500 30 -1 8.70000 126.400 2 1002 0 0 0 8.70000 126.500 1 29 1002 9.20000 126.100 TD 30 998 12 280
1991111N04145 1991 20 WP MM VANESSA 1991-04-24 09:00:00 TS 9.00997 125.741 main 0 0 PPPP__________ WP031991 9.04242 125.857 30 -1 8.88494 125.792 2 1002 0 0 8.81250 125.843 1 29 1002 9.30003 125.470 TD 30 998 13 284
1991111N04145 1991 20 WP MM VANESSA 1991-04-24 12:00:00 TS 9.17500 125.125 1002 tokyo main 24 24 OOOO__________ jtwc_wp WP031991 9.20000 125.200 30 -1 9.10000 125.200 2 1002 0 0 0 9.00000 125.200 1 29 1002 9.40000 124.900 TD 30 998 12 286
1991111N04145 1991 20 WP MM VANESSA 1991-04-24 15:00:00 TS 9.34418 124.587 main 44 11 PPPP__________ WP031991 9.33492 124.542 30 -1 9.35734 124.650 2 1002 0 0 9.25723 124.658 1 29 1002 9.42722 124.500 TD 30 998 11 288
1991111N04145 1991 20 WP MM VANESSA 1991-04-24 18:00:00 TS 9.52500 124.050 1002 tokyo main 11 0 OOOO__________ jtwc_wp WP031991 9.50000 123.900 30 -1 9.60000 124.100 2 1002 0 0 0 9.50000 124.100 1 29 1002 9.50000 124.100 TD 30 998 12 287
1991111N04145 1991 20 WP MM VANESSA 1991-04-24 21:00:00 TS 9.69935 123.434 main 0 0 PPPP__________ WP031991 9.73482 123.300 27 -1 9.74993 123.507 2 1003 0 0 9.60007 123.407 1 29 1002 9.71257 123.523 TD 27 999 13 287
1991111N04145 1991 20 WP MM VANESSA 1991-04-25 00:00:00 TS 9.90000 122.800 1004 tokyo main 0 0 OOOO__________ jtwc_wp WP031991 10.0000 122.700 25 -1 9.90000 122.900 2 1004 0 0 0 9.70000 122.700 1 29 1002 10.0000 122.900 TD 25 1000 13 290
1991111N04145 1991 20 WP MM VANESSA 1991-04-25 03:00:00 TS 10.1511 122.196 main 31 11 PPPP__________ WP031991 10.2500 122.050 25 -1 10.1349 122.307 2 1004 0 0 9.91989 122.070 1 29 1002 10.2998 122.357 TD 25 1000 13 294
1991111N04145 1991 20 WP MM VANESSA 1991-04-25 06:00:00 TS 10.4250 121.600 1004 tokyo main 32 32 OOOO__________ jtwc_wp WP031991 10.5000 121.400 25 -1 10.4000 121.700 2 1004 0 0 0 10.2000 121.500 1 29 1002 10.6000 121.800 TD 25 1000 13 295
1991111N04145 1991 20 WP MM VANESSA 1991-04-25 09:00:00 TS 10.6967 121.004 main 99 88 PPPP__________ WP031991 10.7648 120.792 27 -1 10.6574 121.057 2 1005 0 0 10.4998 121.000 1 29 1002 10.8650 121.165 TD 25 1000 13 294
1991111N04145 1991 20 WP MM VANESSA 1991-04-25 12:00:00 TS 10.9500 120.400 1006 tokyo main 87 24 OOOO__________ jtwc_wp WP031991 11.0000 120.200 30 -1 10.9000 120.400 2 1006 0 0 0 10.8000 120.500 1 29 1002 11.1000 120.500 TD 25 1000 13 291
1991111N04145 1991 20 WP MM VANESSA 1991-04-25 15:00:00 TS 11.1686 119.782 main 24 0 PPPP__________ WP031991 11.1649 119.600 30 -1 11.1224 119.750 2 1005 0 0 11.0799 119.923 1 29 1001 11.3073 119.857 TD 25 1000 13 288
1991111N04145 1991 20 WP MM VANESSA 1991-04-25 18:00:00 TS 11.3500 119.150 1004 tokyo main 31 31 OOOO__________ jtwc_wp WP031991 11.3000 119.000 30 -1 11.3000 119.100 2 1004 0 0 0 11.3000 119.300 1 29 1000 11.5000 119.200 TD 25 1000 13 285
1991111N04145 1991 20 WP MM VANESSA 1991-04-25 21:00:00 TS 11.4930 118.504 main 103 103 PPPP__________ WP031991 11.4499 118.400 32 -1 11.3924 118.450 2 1003 0 0 11.4148 118.672 1 29 1000 11.7150 118.493 TD 27 999 13 282
1991111N04145 1991 20 WP MM VANESSA 1991-04-26 00:00:00 TS 11.6250 117.850 35 1002 tokyo main 169 169 OOOO__________ jtwc_wp WP031991 11.6000 117.800 35 0 11.5000 117.800 3 35 1002 0 9 60 60 0 11.5000 118.000 1 29 1000 11.9000 117.800 TD 30 998 13 282
1991111N04145 1991 20 WP MM VANESSA 1991-04-26 03:00:00 TS 11.7705 117.194 main 249 249 PPPP__________ WP031991 11.7424 117.200 37 0 11.7349 117.143 3 37 1000 0 9 70 70 11.6051 117.242 1 33 999 11.9997 117.192 TD 32 996 13 284
1991111N04145 1991 20 WP MM VANESSA 1991-04-26 06:00:00 TS 11.9500 116.550 40 998 tokyo main 318 313 OOOO__________ jtwc_wp WP031991 11.9000 116.600 40 0 12.0000 116.500 3 40 998 0 9 80 80 0 11.8000 116.500 2 38 998 12.1000 116.600 TS 35 995 13 289
1991111N04145 1991 20 WP MM VANESSA 1991-04-26 09:00:00 TS 12.1961 115.923 main 394 394 PPPP__________ WP031991 12.0924 116.000 40 0 12.2074 115.877 3 40 997 0 9 90 90 12.1998 115.863 2 38 996 12.2850 115.950 TS 37 992 13 293
1991111N04145 1991 20 WP MM VANESSA 1991-04-26 12:00:00 TS 12.4500 115.325 40 996 tokyo main 459 459 OOOO__________ jtwc_wp WP031991 12.3000 115.400 40 0 12.4000 115.300 3 40 996 0 9 100 100 0 12.6000 115.300 2 38 995 12.5000 115.300 TS 40 990 12 291
1991111N04145 1991 20 WP MM VANESSA 1991-04-26 15:00:00 TS 12.6411 114.765 main 502 502 PPPP__________ WP031991 12.4999 114.800 42 0 12.5848 114.785 3 42 995 0 9 100 100 12.7873 114.792 2 38 995 12.6924 114.685 TS 40 990 11 289
1991111N04145 1991 20 WP MM VANESSA 1991-04-26 18:00:00 TS 12.8250 114.225 45 994 tokyo main 509 455 OOOO__________ jtwc_wp WP031991 12.7000 114.200 45 0 12.8000 114.300 3 45 994 0 9 100 100 0 12.9000 114.300 2 38 995 12.9000 114.100 TS 40 990 12 290
1991111N04145 1991 20 WP MM VANESSA 1991-04-26 21:00:00 TS 13.0331 113.656 main 455 402 PPPP__________ WP031991 12.8850 113.585 45 0 13.0775 113.785 3 45 994 0 9 105 105 13.0426 113.727 2 43 992 13.1274 113.527 TS 40 992 12 293
1991111N04145 1991 20 WP MM VANESSA 1991-04-27 00:00:00 TS 13.2750 113.125 45 994 tokyo main 392 353 OOOO__________ jtwc_wp WP031991 13.1000 113.000 45 0 13.4000 113.300 3 45 994 0 9 110 110 0 13.2000 113.200 3 48 990 13.4000 113.000 TS 40 995 11 298
1991111N04145 1991 20 WP MM VANESSA 1991-04-27 03:00:00 TS 13.5430 112.664 main 353 319 PPPP__________ WP031991 13.3699 112.470 45 0 13.7274 112.877 3 42 995 0 9 110 110 13.3549 112.797 3 48 990 13.7199 112.512 TS 37 995 10 306
1991111N04145 1991 20 WP MM VANESSA 1991-04-27 06:00:00 TS 13.8600 112.287 40 996 tokyo main 323 292 OOOO__________ jtwc_wp WP031991 13.7000 112.000 45 0 14.1000 112.500 3 40 996 0 9 110 110 0 13.6000 112.500 3 48 990 14.1000 112.100 TS 35 995 10 316
1991111N04145 1991 20 WP MM VANESSA 1991-04-27 09:00:00 TS 14.2528 111.961 main 294 270 PPPP__________ WP031991 14.0700 111.555 42 0 14.5425 112.120 3 40 997 0 9 110 110 14.0049 112.300 3 48 990 14.5350 111.775 TS 32 996 10 325
1991111N04145 1991 20 WP MM VANESSA 1991-04-27 12:00:00 TS 14.6923 111.685 40 998 tokyo main 273 251 OOOO__________ jtwc_wp WP031991 14.5000 111.200 40 0 15.0000 111.800 3 40 998 0 9 110 110 0 14.5000 112.100 3 48 990 15.0000 111.500 TD 30 998 10 329
1991111N04145 1991 20 WP MM VANESSA 1991-04-27 15:00:00 TS 15.1108 111.422 main 251 242 PPP___________ WP031991 14.9774 110.940 37 0 15.3999 111.577 3 37 1000 0 9 110 110 14.9551 111.750 3 43 992 TD 10 333
1991111N04145 1991 20 WP MM VANESSA 1991-04-27 18:00:00 TS 15.6000 111.200 35 1002 tokyo main 246 245 OOO___________ jtwc_wp WP031991 15.5000 110.800 35 0 15.8000 111.400 3 35 1002 0 9 110 110 0 15.5000 111.400 2 38 995 11 341
1991111N04145 1991 20 WP MM VANESSA 1991-04-27 21:00:00 TS 16.1558 111.051 main 260 210 PPP___________ WP031991 16.0350 110.762 32 -1 16.2425 111.185 3 1003 0 9 16.1898 111.207 2 33 996 12 347
1991111N04145 1991 20 WP MM VANESSA 1991-04-28 00:00:00 TS 16.7727 110.927 1004 tokyo main 201 131 OOO___________ jtwc_wp WP031991 16.6000 110.800 30 -1 16.7000 111.000 2 1004 0 0 0 17.0000 111.000 1 29 998 14 348
1991111N04145 1991 20 WP MM VANESSA 1991-04-28 03:00:00 TS 17.5065 110.759 main 131 59 PPP___________ WP031991 17.1925 110.820 27 -1 17.1525 110.880 2 1005 0 0 17.9975 110.638 1 29 999 15 347
1991111N04145 1991 20 WP MM VANESSA 1991-04-28 06:00:00 TS 18.2222 110.578 1006 tokyo main 59 0 OOO___________ jtwc_wp WP031991 17.8000 110.900 25 -1 17.6000 110.800 2 1006 0 0 0 18.8000 110.200 1 29 1000 12 345
1991111N04145 1991 20 WP MM VANESSA 1991-04-28 09:00:00 TS 18.6948 110.432 main 0 0 P_P___________ WP031991 18.3925 111.077 25 -1 2 0 0 18.9972 109.786 1 29 1000 8 341
1991111N04145 1991 20 WP MM VANESSA 1991-04-28 12:00:00 TS 19.0000 110.300 main 0 0 O_O___________ jtwc_wp WP031991 19.0000 111.300 25 -1 19.0000 109.300 1 29 1000 8 336
1991111N04145 1991 20 WP MM VANESSA 1991-04-28 15:00:00 TS 19.4104 110.098 main 0 0 P_P___________ WP031991 19.6400 111.507 25 -1 19.1807 108.689 1 26 1001 10 335
1991111N04145 1991 20 WP MM VANESSA 1991-04-28 18:00:00 TS 19.9000 109.850 main 0 O_O___________ jtwc_wp WP031991 20.3000 111.700 25 -1 19.5000 108.000 1 23 1002 11 335

Digital Typhoon Data and Search

About IBTrACS Database

This database is a web-friendly format of International Best Track Archive for Climate Stewardship (IBTrACS), a global best track data archive curated by NOAA dating back to 1842.

Updated: 2021-12-06